createdAt,value
2023-02-26T00:02:51.025Z,100103.59
2023-02-26T00:07:53.249Z,100096.91
2023-02-26T00:12:54.904Z,100098.56
2023-02-26T00:18:13.541Z,100096.88
2023-02-26T00:23:15.317Z,100095.19
2023-02-26T00:28:17.046Z,100092.66
2023-02-26T00:33:19.020Z,100106.03
2023-02-26T00:38:20.600Z,100110.16
2023-02-26T00:43:24.668Z,100115.19
2023-02-26T00:48:45.905Z,100111.81
2023-02-26T00:53:56.812Z,100117.63
2023-02-26T00:58:58.259Z,100116.78
2023-02-26T01:04:00.331Z,100119.25
2023-02-26T01:09:07.803Z,100120.06
2023-02-26T01:14:09.437Z,100119.22
2023-02-26T01:19:54.531Z,100120.00
2023-02-26T01:25:02.450Z,100122.47
2023-02-26T01:30:05.738Z,100116.63
2023-02-26T01:35:19.199Z,100118.25
2023-02-26T01:40:34.968Z,100119.91
2023-02-26T01:45:46.130Z,100123.25
2023-02-26T01:50:47.550Z,100129.94
2023-02-26T01:55:54.270Z,100119.91
2023-02-26T02:00:55.843Z,100122.41
2023-02-26T02:06:06.052Z,100128.22
2023-02-26T02:11:11.339Z,100129.94
2023-02-26T02:16:18.593Z,100127.38
2023-02-26T02:21:41.163Z,100129.84
2023-02-26T02:26:59.608Z,100133.97
2023-02-26T02:32:09.956Z,100143.94
2023-02-26T02:37:34.560Z,100148.94
2023-02-26T02:42:43.110Z,100146.41
2023-02-26T02:47:49.970Z,100145.53
2023-02-26T02:53:18.935Z,100142.97
2023-02-26T02:58:26.304Z,100152.13
2023-02-26T03:03:41.583Z,100142.91
2023-02-26T03:08:44.073Z,100157.00
2023-02-26T03:13:46.705Z,100167.00
2023-02-26T03:19:20.596Z,100171.16
2023-02-26T03:24:32.099Z,100166.91
2023-02-26T03:29:42.426Z,100182.59
2023-02-26T03:34:47.533Z,100193.28
2023-02-26T03:39:53.194Z,100191.47
2023-02-26T03:45:01.708Z,100194.69
2023-02-26T03:50:10.562Z,100202.94
2023-02-26T03:55:24.078Z,100198.78
2023-02-26T04:00:29.838Z,100212.09
2023-02-26T04:05:42.298Z,100215.41
2023-02-26T04:10:58.590Z,100216.13
2023-02-26T04:16:00.280Z,100218.59
2023-02-26T04:21:02.129Z,100225.09
2023-02-26T04:26:03.625Z,100226.72
2023-02-26T04:31:06.674Z,100228.50
2023-02-26T04:36:09.103Z,100228.38
2023-02-26T04:41:10.564Z,100234.94
2023-02-26T04:46:12.015Z,100243.09
2023-02-26T04:51:13.554Z,100247.91
2023-02-26T04:56:15.407Z,100259.66
2023-02-26T05:01:16.924Z,100247.34
2023-02-26T05:06:18.372Z,100255.75
2023-02-26T05:11:20.231Z,100257.50
2023-02-26T05:16:21.716Z,100257.50
2023-02-26T05:21:26.073Z,100269.16
2023-02-26T05:26:27.964Z,100262.50
2023-02-26T05:31:29.996Z,100266.66
2023-02-26T05:36:31.795Z,100280.09
2023-02-26T05:41:33.203Z,100290.19
2023-02-26T05:46:34.861Z,100288.53
2023-02-26T05:51:36.330Z,100284.28
2023-02-26T05:56:37.957Z,100294.22
2023-02-26T06:01:39.511Z,100305.00
2023-02-26T06:06:41.124Z,100306.63
2023-02-26T06:11:42.608Z,100309.09
2023-02-26T06:16:44.152Z,100321.56
2023-02-26T06:21:45.712Z,100332.34
2023-02-26T06:26:47.368Z,100333.25
2023-02-26T06:31:49.003Z,100344.06
2023-02-26T06:36:50.493Z,100365.03
2023-02-26T06:41:52.474Z,100367.66
2023-02-26T06:46:54.110Z,100379.63
2023-02-26T06:51:55.622Z,100383.53
2023-02-26T06:56:57.797Z,100394.41
2023-02-26T07:01:59.525Z,100400.25
2023-02-26T07:07:01.260Z,100411.97
2023-02-26T07:12:02.973Z,100408.72
2023-02-26T07:17:04.812Z,100426.41
2023-02-26T07:22:06.450Z,100429.13
2023-02-26T07:27:08.316Z,100441.88
2023-02-26T07:32:10.053Z,100439.41
2023-02-26T07:37:11.563Z,100446.72
2023-02-26T07:42:13.263Z,100452.59
2023-02-26T07:47:14.741Z,100457.00
2023-02-26T07:52:16.673Z,100463.81
2023-02-26T07:57:19.518Z,100465.56
2023-02-26T08:02:21.039Z,100474.13
2023-02-26T08:07:22.462Z,100473.28
2023-02-26T08:12:23.999Z,100465.25
2023-02-26T08:17:25.507Z,100467.59
2023-02-26T08:22:27.032Z,100475.22
2023-02-26T08:27:28.488Z,100468.63
2023-02-26T08:32:31.014Z,100462.06
2023-02-26T08:37:32.689Z,100453.81
2023-02-26T08:42:34.128Z,100446.22
2023-02-26T08:47:39.576Z,100462.19
2023-02-26T08:52:44.002Z,100477.28
2023-02-26T08:57:45.447Z,100482.38
2023-02-26T09:02:47.158Z,100489.88
2023-02-26T09:07:48.807Z,100495.72
2023-02-26T09:12:50.633Z,100505.69
2023-02-26T09:17:52.169Z,100510.75
2023-02-26T09:22:54.160Z,100517.41
2023-02-26T09:27:58.926Z,100509.03
2023-02-26T09:33:00.630Z,100504.09
2023-02-26T09:38:04.023Z,100509.19
2023-02-26T09:43:37.747Z,100508.31
2023-02-26T09:48:40.338Z,100520.03
2023-02-26T09:53:42.310Z,100514.94
2023-02-26T09:58:44.926Z,100524.09
2023-02-26T10:04:15.939Z,100525.78
2023-02-26T10:09:35.914Z,100525.75
2023-02-26T10:14:44.662Z,100524.91
2023-02-26T10:19:51.539Z,100529.97
2023-02-26T10:25:02.340Z,100521.66
2023-02-26T10:30:13.926Z,100530.94
2023-02-26T10:35:17.612Z,100537.63
2023-02-26T10:40:44.603Z,100526.69
2023-02-26T10:45:46.014Z,100535.91
2023-02-26T10:51:00.252Z,100544.25
2023-02-26T10:56:19.305Z,100541.72
2023-02-26T11:01:23.851Z,100546.75
2023-02-26T11:06:33.565Z,100567.72
2023-02-26T11:11:47.248Z,100551.75
2023-02-26T11:17:00.753Z,100564.31
2023-02-26T11:22:04.331Z,100568.53
2023-02-26T11:27:13.000Z,100556.06
2023-02-26T11:32:21.505Z,100561.13
2023-02-26T11:37:27.770Z,100563.59
2023-02-26T11:42:29.415Z,100574.50
2023-02-26T11:47:33.259Z,100564.38
2023-02-26T11:52:44.953Z,100573.47
2023-02-26T11:57:54.151Z,100579.28
2023-02-26T12:03:10.746Z,100580.09
2023-02-26T12:08:39.046Z,100571.84
2023-02-26T12:13:56.581Z,100561.91
2023-02-26T12:19:22.004Z,100566.16
2023-02-26T12:24:55.840Z,100583.78
2023-02-26T12:30:24.998Z,100577.09
2023-02-26T12:35:46.838Z,100577.13
2023-02-26T12:41:06.853Z,100577.16
2023-02-26T12:46:33.141Z,100569.63
2023-02-26T12:51:44.789Z,100561.22
2023-02-26T12:57:23.917Z,100574.66
2023-02-26T13:02:56.537Z,100565.44
2023-02-26T13:08:22.396Z,100578.00
2023-02-26T13:13:33.099Z,100577.16
2023-02-26T13:18:59.758Z,100573.81
2023-02-26T13:24:08.605Z,100573.81
2023-02-26T13:29:21.120Z,100569.56
2023-02-26T13:34:45.272Z,100561.03
2023-02-26T13:39:53.791Z,100560.06
2023-02-26T13:45:21.153Z,100563.50
2023-02-26T13:50:43.897Z,100572.06
2023-02-26T13:55:49.087Z,100572.97
2023-02-26T14:01:20.271Z,100561.22
2023-02-26T14:06:56.603Z,100572.13
2023-02-26T14:12:37.415Z,100574.63
2023-02-26T14:17:49.138Z,100576.31
2023-02-26T14:23:13.195Z,100588.09
2023-02-26T14:28:26.959Z,100592.28
2023-02-26T14:33:31.180Z,100589.75
2023-02-26T14:38:39.432Z,100600.69
2023-02-26T14:43:45.020Z,100588.91
2023-02-26T14:48:46.990Z,100625.88
2023-02-26T14:54:07.069Z,100620.00
2023-02-26T14:59:37.751Z,100625.03
2023-02-26T15:04:43.010Z,100629.22
2023-02-26T15:10:10.024Z,100618.31
2023-02-26T15:15:36.385Z,100627.56
2023-02-26T15:20:55.048Z,100624.19
2023-02-26T15:25:59.348Z,100630.09
2023-02-26T15:31:01.794Z,100626.72
2023-02-26T15:36:12.552Z,100635.94
2023-02-26T15:41:15.174Z,100643.50
2023-02-26T15:46:18.144Z,100648.53
2023-02-26T15:51:20.454Z,100647.69
2023-02-26T15:56:27.239Z,100657.75
2023-02-26T16:01:30.985Z,100663.66
2023-02-26T16:06:40.386Z,100664.47
2023-02-26T16:11:43.686Z,100682.09
2023-02-26T16:16:48.759Z,100682.06
2023-02-26T16:21:52.739Z,100684.56
2023-02-26T16:26:59.364Z,100681.19
2023-02-26T16:32:03.185Z,100690.41
2023-02-26T16:37:33.746Z,100703.81
2023-02-26T16:42:46.442Z,100707.97
2023-02-26T16:47:51.361Z,100721.38
2023-02-26T16:53:01.137Z,100728.91
2023-02-26T16:58:07.678Z,100738.94
2023-02-26T17:03:19.407Z,100743.94
2023-02-26T17:08:26.255Z,100748.94
2023-02-26T17:13:31.523Z,100759.03
2023-02-26T17:18:33.188Z,100773.25
2023-02-26T17:23:37.785Z,100768.19
2023-02-26T17:28:42.743Z,100777.34
2023-02-26T17:33:45.187Z,100772.28
2023-02-26T17:38:47.671Z,100786.47
2023-02-26T17:43:49.123Z,100793.16
2023-02-26T17:48:50.542Z,100798.13
2023-02-26T17:53:52.012Z,100801.38
2023-02-26T17:58:55.272Z,100804.81
2023-02-26T18:03:57.408Z,100814.88
2023-02-26T18:08:58.889Z,100824.19
2023-02-26T18:14:01.247Z,100830.78
2023-02-26T18:25:20.639Z,100836.50
2023-02-26T18:30:25.704Z,100848.19
2023-02-26T18:35:30.044Z,100848.09
2023-02-26T18:40:31.518Z,100841.38
2023-02-26T18:45:33.002Z,100846.34
2023-02-26T18:50:34.566Z,100852.19
2023-02-26T18:55:37.273Z,100833.75
2023-02-26T19:00:38.903Z,100860.44
2023-02-26T19:05:40.406Z,100864.50
2023-02-26T19:10:41.885Z,100860.25
2023-02-26T19:15:43.462Z,100864.41
2023-02-26T19:20:44.998Z,100866.00
2023-02-26T19:25:46.441Z,100868.41
2023-02-26T19:30:47.921Z,100869.94
2023-02-26T19:35:49.519Z,100869.88
2023-02-26T19:40:51.077Z,100883.19
2023-02-26T19:45:52.893Z,100884.84
2023-02-26T19:50:55.493Z,100884.75
2023-02-26T19:55:57.073Z,100905.63
2023-02-26T20:01:03.453Z,100892.13
2023-02-26T20:06:08.268Z,100906.31
2023-02-26T20:11:09.772Z,100912.00
2023-02-26T20:16:11.609Z,100917.03
2023-02-26T20:21:14.161Z,100923.66
2023-02-26T20:26:16.718Z,100927.69
2023-02-26T20:31:18.370Z,100942.66
2023-02-26T20:36:20.488Z,100936.72
2023-02-26T20:41:21.976Z,100947.41
2023-02-26T20:46:23.461Z,100949.06
2023-02-26T20:51:25.611Z,100963.09
2023-02-26T20:56:27.236Z,100953.78
2023-02-26T21:01:35.402Z,100962.97
2023-02-26T21:06:37.511Z,100964.53
2023-02-26T21:11:39.458Z,100963.56
2023-02-26T21:16:41.471Z,100961.81
2023-02-26T21:21:42.973Z,100970.22
2023-02-26T21:26:44.409Z,100958.47
2023-02-26T21:31:46.021Z,100960.84
2023-02-26T21:36:47.642Z,100975.88
2023-02-26T21:41:49.120Z,100970.78
2023-02-26T21:46:50.774Z,100979.81
2023-02-26T21:51:52.849Z,100979.72
2023-02-26T21:56:54.880Z,100978.88
2023-02-26T22:01:56.479Z,100973.72
2023-02-26T22:06:57.940Z,100969.56
2023-02-26T22:11:59.382Z,100978.75
2023-02-26T22:17:00.808Z,100974.56
2023-02-26T22:22:02.249Z,100979.38
2023-02-26T22:27:03.972Z,100972.75
2023-02-26T22:32:06.533Z,100992.69
2023-02-26T22:37:08.087Z,100993.53
2023-02-26T22:42:11.645Z,100990.97
2023-02-26T22:47:13.125Z,100986.81
2023-02-26T22:52:15.034Z,100992.59
2023-02-26T22:57:16.521Z,100985.09
2023-02-26T23:02:18.145Z,100985.06
2023-02-26T23:07:19.703Z,100992.53
2023-02-26T23:12:21.133Z,100988.25
2023-02-26T23:17:22.571Z,100989.03
2023-02-26T23:22:24.294Z,100979.91
2023-02-26T23:27:25.752Z,100988.94
2023-02-26T23:32:27.189Z,100977.28
2023-02-26T23:37:28.745Z,100979.75
2023-02-26T23:42:30.257Z,100981.28
2023-02-26T23:47:31.677Z,100981.19
2023-02-26T23:52:34.143Z,100992.91
2023-02-26T23:57:35.843Z,100979.53
